Time;durP1;ratioP1;P1;durP2;ratioP2;P2;SDS_P1;SDS_P2;PMS_P1;PMS_P2;Temp;Humidity;BMP_temperature;BMP_pressure;BME280_temperature;BME280_humidity;BME280_pressure;Samples;Min_cycle;Max_cycle;Signal;HPM_P1;HPM_P2
2022/04/03 00:02:38;;;;;;;16.25;10.02;;;;;;;;;;5071117;28;20111;-70
2022/04/03 00:05:23;;;;;;;11.27;8.73;;;;;;;;;;5077622;28;20081;-73
2022/04/03 00:08:09;;;;;;;11.88;9.18;;;;;;;;;;5073205;28;20028;-67
2022/04/03 00:10:54;;;;;;;14.20;10.38;;;;;;;;;;5069121;28;20024;-68
2022/04/03 00:13:40;;;;;;;16.33;9.82;;;;;;;;;;5066629;28;20127;-68
2022/04/03 00:16:25;;;;;;;14.18;10.38;;;;;;;;;;5070802;28;20016;-68
2022/04/03 00:19:11;;;;;;;12.82;9.68;;;;;;;;;;5054419;28;20519;-69
2022/04/03 00:21:56;;;;;;;15.75;10.88;;;;;;;;;;5063828;28;20041;-69
2022/04/03 00:24:41;;;;;;;14.15;9.20;;;;;;;;;;5067095;28;20031;-68
2022/04/03 00:27:27;;;;;;;19.05;11.25;;;;;;;;;;5057135;28;20028;-67
2022/04/03 00:30:12;;;;;;;16.45;10.05;;;;;;;;;;5070638;28;20037;-71
2022/04/03 00:32:58;;;;;;;12.00;8.85;;;;;;;;;;5067967;28;20036;-71
2022/04/03 00:35:43;;;;;;;15.05;10.38;;;;;;;;;;5058881;28;20066;-72
2022/04/03 00:38:28;;;;;;;15.13;9.68;;;;;;;;;;5065070;28;20421;-71
2022/04/03 00:41:14;;;;;;;14.93;10.50;;;;;;;;;;5069284;28;20032;-70
2022/04/03 00:43:59;;;;;;;18.30;10.25;;;;;;;;;;5070869;28;20078;-64
2022/04/03 00:46:47;;;;;;;17.85;9.85;;;;;;;;;;5058924;28;20440;-76
2022/04/03 00:49:33;;;;;;;16.05;11.02;;;;;;;;;;5069234;28;20472;-77
2022/04/03 00:52:18;;;;;;;14.15;10.20;;;;;;;;;;5052126;28;20491;-76
2022/04/03 00:55:04;;;;;;;13.95;11.00;;;;;;;;;;5052400;28;20459;-76
2022/04/03 00:57:49;;;;;;;17.15;10.68;;;;;;;;;;5069576;28;20457;-76
2022/04/03 01:00:35;;;;;;;14.27;9.93;;;;;;;;;;5068600;28;20103;-76
2022/04/03 01:03:20;;;;;;;15.20;9.73;;;;;;;;;;5070506;28;20068;-72
2022/04/03 01:06:06;;;;;;;15.25;11.52;;;;;;;;;;5070691;28;20032;-67
2022/04/03 01:08:51;;;;;;;15.40;9.85;;;;;;;;;;5069516;28;20024;-66
2022/04/03 01:11:37;;;;;;;14.32;10.45;;;;;;;;;;5059821;28;20111;-67
2022/04/03 01:14:33;;;;;;;15.93;11.40;;;;;;;;;;5074623;28;20479;-69
2022/04/03 01:17:18;;;;;;;13.13;9.82;;;;;;;;;;5076252;28;20059;-68
2022/04/03 01:20:03;;;;;;;13.70;10.07;;;;;;;;;;5073078;28;20475;-67
2022/04/03 01:22:49;;;;;;;15.95;10.75;;;;;;;;;;5057031;28;20033;-67
2022/04/03 01:25:34;;;;;;;13.50;10.82;;;;;;;;;;5071922;28;20021;-64
2022/04/03 01:28:20;;;;;;;16.73;11.07;;;;;;;;;;5073300;28;20438;-67
2022/04/03 01:31:05;;;;;;;16.23;12.38;;;;;;;;;;5110748;28;20118;-65
2022/04/03 01:33:50;;;;;;;17.10;11.60;;;;;;;;;;5057317;28;20047;-63
2022/04/03 01:36:35;;;;;;;16.98;12.20;;;;;;;;;;5070374;28;20047;-64
2022/04/03 01:39:21;;;;;;;16.40;11.98;;;;;;;;;;5083067;28;20494;-66
2022/04/03 01:42:06;;;;;;;18.80;12.10;;;;;;;;;;5063595;28;20469;-68
2022/04/03 01:44:51;;;;;;;15.50;10.88;;;;;;;;;;5068726;28;20570;-77
2022/04/03 01:47:37;;;;;;;19.02;12.40;;;;;;;;;;5074582;28;20063;-78
2022/04/03 01:50:22;;;;;;;16.40;11.10;;;;;;;;;;5056759;28;20431;-76
2022/04/03 01:53:08;;;;;;;17.10;12.73;;;;;;;;;;5041819;28;20040;-77
2022/04/03 01:55:59;;;;;;;18.92;11.77;;;;;;;;;;5059316;28;20024;-78
2022/04/03 01:58:44;;;;;;;19.40;11.65;;;;;;;;;;5069777;28;20431;-78
2022/04/03 02:01:30;;;;;;;16.08;10.05;;;;;;;;;;5041569;28;20024;-65
2022/04/03 02:04:16;;;;;;;16.92;11.27;;;;;;;;;;5056687;28;20021;-65
2022/04/03 02:07:03;;;;;;;14.90;10.57;;;;;;;;;;5095997;28;20031;-66
2022/04/03 02:09:48;;;;;;;16.15;10.55;;;;;;;;;;5062332;28;20038;-65
2022/04/03 02:12:33;;;;;;;14.75;9.73;;;;;;;;;;5075563;28;20466;-66
2022/04/03 02:15:19;;;;;;;16.80;9.70;;;;;;;;;;5074930;28;20024;-63
2022/04/03 02:18:04;;;;;;;15.70;10.50;;;;;;;;;;5074625;28;20020;-70
2022/04/03 02:20:49;;;;;;;13.20;9.70;;;;;;;;;;5068338;28;20430;-66
2022/04/03 02:23:35;;;;;;;16.58;11.15;;;;;;;;;;5064464;28;20133;-67
2022/04/03 02:26:20;;;;;;;12.15;9.30;;;;;;;;;;5052708;28;20060;-67
2022/04/03 02:29:05;;;;;;;14.48;10.23;;;;;;;;;;5062252;28;20131;-68
2022/04/03 02:31:51;;;;;;;15.07;10.77;;;;;;;;;;5068868;28;20027;-67
2022/04/03 02:34:36;;;;;;;20.20;11.95;;;;;;;;;;5074572;28;20019;-69
2022/04/03 02:37:22;;;;;;;15.40;10.50;;;;;;;;;;5074400;28;20024;-69
2022/04/03 02:40:09;;;;;;;15.18;10.90;;;;;;;;;;5075157;28;20023;-72
2022/04/03 02:42:54;;;;;;;15.40;11.00;;;;;;;;;;5074941;28;20040;-74
2022/04/03 02:45:40;;;;;;;16.90;11.52;;;;;;;;;;5059651;28;20161;-73
2022/04/03 02:48:25;;;;;;;16.95;12.23;;;;;;;;;;5062085;28;20024;-73
2022/04/03 02:51:10;;;;;;;17.80;12.50;;;;;;;;;;5075415;28;20569;-72
2022/04/03 02:53:55;;;;;;;17.90;10.90;;;;;;;;;;5093890;28;20015;-64
2022/04/03 02:56:41;;;;;;;18.25;11.90;;;;;;;;;;5072665;28;20517;-67
2022/04/03 02:59:26;;;;;;;18.80;11.25;;;;;;;;;;5056802;28;20020;-68
2022/04/03 03:02:11;;;;;;;16.92;11.30;;;;;;;;;;5074319;28;20046;-67
2022/04/03 03:04:57;;;;;;;20.33;12.88;;;;;;;;;;5073960;28;20510;-68
2022/04/03 03:07:46;;;;;;;17.67;12.23;;;;;;;;;;5074472;28;20105;-69
2022/04/03 03:10:32;;;;;;;16.35;11.20;;;;;;;;;;5074127;28;20624;-66
2022/04/03 03:13:18;;;;;;;15.93;11.20;;;;;;;;;;5073427;28;20085;-62
2022/04/03 03:16:04;;;;;;;14.73;10.13;;;;;;;;;;5040613;28;20499;-69
2022/04/03 03:18:49;;;;;;;17.52;11.52;;;;;;;;;;5083842;28;20027;-67
2022/04/03 03:21:35;;;;;;;14.85;10.20;;;;;;;;;;5068535;28;20032;-67
2022/04/03 03:24:20;;;;;;;12.68;8.98;;;;;;;;;;5071768;28;20387;-69
2022/04/03 03:27:05;;;;;;;15.63;10.45;;;;;;;;;;5060478;28;20113;-68
2022/04/03 03:29:50;;;;;;;16.73;10.07;;;;;;;;;;5074556;28;20024;-70
2022/04/03 03:32:36;;;;;;;15.07;10.82;;;;;;;;;;5060342;28;20399;-72
2022/04/03 03:35:21;;;;;;;14.07;9.65;;;;;;;;;;5054479;28;20020;-65
2022/04/03 03:38:07;;;;;;;12.52;9.23;;;;;;;;;;5057222;28;20368;-71
2022/04/03 03:40:53;;;;;;;17.33;10.05;;;;;;;;;;5090715;28;20015;-69
2022/04/03 03:43:38;;;;;;;15.55;9.60;;;;;;;;;;5072261;28;20028;-71
2022/04/03 03:46:23;;;;;;;15.75;10.50;;;;;;;;;;5073763;28;20016;-68
2022/04/03 03:49:09;;;;;;;13.75;8.90;;;;;;;;;;5068998;28;20027;-64
2022/04/03 03:51:54;;;;;;;15.30;10.10;;;;;;;;;;5074411;28;20028;-77
2022/04/03 03:54:39;;;;;;;14.30;9.65;;;;;;;;;;5073498;28;20387;-76
2022/04/03 03:57:24;;;;;;;17.23;10.93;;;;;;;;;;5060117;28;20051;-77
2022/04/03 04:00:10;;;;;;;12.73;9.15;;;;;;;;;;5067612;28;20111;-77
2022/04/03 04:02:55;;;;;;;13.48;9.80;;;;;;;;;;5059373;28;20028;-77
2022/04/03 04:05:41;;;;;;;16.55;10.77;;;;;;;;;;5068038;28;20025;-77
2022/04/03 04:08:26;;;;;;;17.27;10.45;;;;;;;;;;5054277;28;20028;-63
2022/04/03 04:11:11;;;;;;;17.10;9.65;;;;;;;;;;5082421;28;20028;-68
2022/04/03 04:13:56;;;;;;;15.50;10.13;;;;;;;;;;5067131;28;20032;-69
2022/04/03 04:16:42;;;;;;;14.27;11.23;;;;;;;;;;5053880;28;20028;-68
2022/04/03 04:19:28;;;;;;;14.95;10.52;;;;;;;;;;5057896;28;20060;-68
2022/04/03 04:22:14;;;;;;;14.65;10.68;;;;;;;;;;5057893;28;20106;-69
2022/04/03 04:24:59;;;;;;;15.73;10.00;;;;;;;;;;5057414;28;20035;-76
2022/04/03 04:27:45;;;;;;;15.02;10.25;;;;;;;;;;5074859;28;20020;-70
2022/04/03 04:30:30;;;;;;;15.95;10.90;;;;;;;;;;5076749;28;20020;-70
2022/04/03 04:33:15;;;;;;;18.30;10.82;;;;;;;;;;5077562;28;20035;-72
2022/04/03 04:36:00;;;;;;;15.00;10.95;;;;;;;;;;5061907;28;20517;-71
2022/04/03 04:38:47;;;;;;;14.65;10.45;;;;;;;;;;5075078;28;20028;-71
2022/04/03 04:41:32;;;;;;;16.42;11.20;;;;;;;;;;5067854;28;20387;-70
2022/04/03 04:44:17;;;;;;;17.42;12.00;;;;;;;;;;5069127;28;20067;-64
2022/04/03 04:47:02;;;;;;;14.10;10.85;;;;;;;;;;5077575;28;20028;-72
2022/04/03 04:49:48;;;;;;;16.75;11.88;;;;;;;;;;5075769;28;20032;-74
2022/04/03 04:52:33;;;;;;;16.92;11.77;;;;;;;;;;5092275;28;20028;-73
2022/04/03 04:55:19;;;;;;;16.42;11.52;;;;;;;;;;5081854;28;20036;-72
2022/04/03 04:58:04;;;;;;;17.88;12.05;;;;;;;;;;5077814;28;20072;-73
2022/04/03 05:00:49;;;;;;;16.80;11.13;;;;;;;;;;5056825;28;20047;-72
2022/04/03 05:03:35;;;;;;;15.88;11.23;;;;;;;;;;5056898;28;20040;-74
2022/04/03 05:06:22;;;;;;;15.70;10.77;;;;;;;;;;5044118;28;20025;-76
2022/04/03 05:09:08;;;;;;;19.13;11.55;;;;;;;;;;5076885;28;20038;-76
2022/04/03 05:11:53;;;;;;;17.30;12.35;;;;;;;;;;5074914;28;20040;-77
2022/04/03 05:14:39;;;;;;;16.80;12.02;;;;;;;;;;5075863;28;20109;-76
2022/04/03 05:17:26;;;;;;;18.25;10.88;;;;;;;;;;5076193;28;20459;-76
2022/04/03 05:20:15;;;;;;;18.10;12.10;;;;;;;;;;5071637;28;20051;-73
2022/04/03 05:23:00;;;;;;;15.23;11.50;;;;;;;;;;5077267;28;20165;-63
2022/04/03 05:25:45;;;;;;;18.75;13.10;;;;;;;;;;5073766;28;20050;-68
2022/04/03 05:28:31;;;;;;;17.13;12.35;;;;;;;;;;5055021;28;20147;-68
2022/04/03 05:31:17;;;;;;;15.13;10.95;;;;;;;;;;5042457;28;20051;-69
2022/04/03 05:34:03;;;;;;;16.20;11.32;;;;;;;;;;5068085;28;20467;-69
2022/04/03 05:36:48;;;;;;;16.27;10.50;;;;;;;;;;5071486;28;20055;-69
2022/04/03 05:39:33;;;;;;;16.38;10.73;;;;;;;;;;5081459;28;20378;-69
2022/04/03 05:42:19;;;;;;;16.92;11.23;;;;;;;;;;5076548;28;20044;-75
2022/04/03 05:45:05;;;;;;;14.95;10.45;;;;;;;;;;5095428;28;20024;-75
2022/04/03 05:47:50;;;;;;;15.00;10.38;;;;;;;;;;5081681;28;20055;-77
2022/04/03 05:50:38;;;;;;;13.90;10.32;;;;;;;;;;5042046;28;20032;-76
2022/04/03 05:53:23;;;;;;;14.15;10.48;;;;;;;;;;5058783;28;20012;-77
2022/04/03 05:56:09;;;;;;;16.52;10.40;;;;;;;;;;5075876;28;20031;-76
2022/04/03 05:58:54;;;;;;;18.08;10.02;;;;;;;;;;5068638;28;20093;-76
2022/04/03 06:01:40;;;;;;;13.35;8.80;;;;;;;;;;5075392;28;20028;-70
2022/04/03 06:04:25;;;;;;;14.48;9.35;;;;;;;;;;5075349;28;20020;-71
2022/04/03 06:07:11;;;;;;;14.30;9.60;;;;;;;;;;5074627;28;20082;-71
2022/04/03 06:09:56;;;;;;;15.60;10.02;;;;;;;;;;5078087;28;20041;-71
2022/04/03 06:12:54;;;;;;;16.67;9.93;;;;;;;;;;5055577;28;20048;-70
2022/04/03 06:15:42;;;;;;;15.57;10.50;;;;;;;;;;5074912;28;20119;-70
2022/04/03 06:18:27;;;;;;;17.13;9.77;;;;;;;;;;5074717;28;20031;-67
2022/04/03 06:21:12;;;;;;;13.07;9.27;;;;;;;;;;5075002;28;20036;-71
2022/04/03 06:23:57;;;;;;;14.55;8.57;;;;;;;;;;5061219;28;20044;-71
2022/04/03 06:26:43;;;;;;;13.90;8.60;;;;;;;;;;5078349;28;20374;-70
2022/04/03 06:29:28;;;;;;;12.93;8.70;;;;;;;;;;5072951;28;20039;-70
2022/04/03 06:32:14;;;;;;;14.55;8.27;;;;;;;;;;5055054;28;20111;-70
2022/04/03 06:34:59;;;;;;;12.32;8.88;;;;;;;;;;5064421;28;20059;-68
2022/04/03 06:37:44;;;;;;;12.30;8.75;;;;;;;;;;5065088;28;20028;-67
2022/04/03 06:40:31;;;;;;;14.18;9.13;;;;;;;;;;5074430;28;20032;-66
2022/04/03 06:43:17;;;;;;;14.05;8.45;;;;;;;;;;5073981;28;20174;-69
2022/04/03 06:46:03;;;;;;;11.77;8.30;;;;;;;;;;5060533;28;20020;-67
2022/04/03 06:48:48;;;;;;;13.95;9.05;;;;;;;;;;5064279;28;20028;-67
2022/04/03 06:51:33;;;;;;;12.88;9.05;;;;;;;;;;5073884;28;20028;-66
2022/04/03 06:54:18;;;;;;;11.02;7.85;;;;;;;;;;5074563;28;20024;-66
2022/04/03 06:57:04;;;;;;;11.85;7.15;;;;;;;;;;5078212;28;20031;-77
2022/04/03 06:59:49;;;;;;;11.75;7.70;;;;;;;;;;5057026;28;20020;-76
2022/04/03 07:02:35;;;;;;;12.65;7.68;;;;;;;;;;5060117;28;20520;-76
2022/04/03 07:05:21;;;;;;;11.88;7.68;;;;;;;;;;5054522;28;20037;-77
2022/04/03 07:08:06;;;;;;;11.38;7.53;;;;;;;;;;5091358;28;20028;-76
2022/04/03 07:10:52;;;;;;;12.85;7.20;;;;;;;;;;5084491;28;20059;-69
2022/04/03 07:13:37;;;;;;;14.43;7.43;;;;;;;;;;5072455;28;20059;-71
2022/04/03 07:16:22;;;;;;;11.50;8.05;;;;;;;;;;5065976;28;20016;-71
2022/04/03 07:19:08;;;;;;;10.45;6.85;;;;;;;;;;5074579;28;20028;-72
2022/04/03 07:21:53;;;;;;;9.23;6.07;;;;;;;;;;5074205;28;20031;-70
2022/04/03 07:24:38;;;;;;;11.35;6.13;;;;;;;;;;5067044;28;20110;-70
2022/04/03 07:27:23;;;;;;;10.25;6.68;;;;;;;;;;5079601;28;20054;-68
2022/04/03 07:30:10;;;;;;;10.10;6.25;;;;;;;;;;5070126;28;20025;-72
2022/04/03 07:32:55;;;;;;;11.75;7.40;;;;;;;;;;5073071;28;20023;-64
2022/04/03 07:35:40;;;;;;;10.73;6.38;;;;;;;;;;5094466;28;20024;-63
2022/04/03 07:38:26;;;;;;;9.85;6.47;;;;;;;;;;5082292;28;20490;-63
2022/04/03 07:41:12;;;;;;;10.88;6.50;;;;;;;;;;5070430;28;20578;-67
2022/04/03 07:43:57;;;;;;;11.55;6.80;;;;;;;;;;5069446;28;20185;-64
2022/04/03 07:46:42;;;;;;;10.60;6.15;;;;;;;;;;5074042;28;20467;-64
2022/04/03 07:49:27;;;;;;;11.52;5.90;;;;;;;;;;5073845;28;20024;-68
2022/04/03 07:52:13;;;;;;;11.25;6.60;;;;;;;;;;5068478;28;20383;-66
2022/04/03 07:54:58;;;;;;;10.07;6.97;;;;;;;;;;5091962;28;20039;-65
2022/04/03 07:57:44;;;;;;;10.77;6.97;;;;;;;;;;5083088;28;20502;-67
2022/04/03 08:00:29;;;;;;;11.73;7.18;;;;;;;;;;5093100;28;20531;-66
2022/04/03 08:03:14;;;;;;;9.40;6.45;;;;;;;;;;5058774;28;20028;-66
2022/04/03 08:06:00;;;;;;;11.35;6.90;;;;;;;;;;5058118;28;20028;-67
2022/04/03 08:08:45;;;;;;;13.35;7.55;;;;;;;;;;5062011;28;20114;-70
2022/04/03 08:11:30;;;;;;;10.40;6.38;;;;;;;;;;5057667;28;20437;-76
2022/04/03 08:14:15;;;;;;;13.13;7.25;;;;;;;;;;5064182;28;20036;-77
2022/04/03 08:17:01;;;;;;;11.38;6.78;;;;;;;;;;5058418;28;20028;-76
2022/04/03 08:19:46;;;;;;;11.18;7.10;;;;;;;;;;5070804;28;20115;-76
2022/04/03 08:22:31;;;;;;;11.68;7.55;;;;;;;;;;5069067;28;20078;-77
2022/04/03 08:25:17;;;;;;;10.82;6.93;;;;;;;;;;5077217;28;20451;-69
2022/04/03 08:28:02;;;;;;;7.93;5.82;;;;;;;;;;5077044;28;20028;-71
2022/04/03 08:30:48;;;;;;;10.38;5.97;;;;;;;;;;5076867;28;20030;-71
2022/04/03 08:33:33;;;;;;;10.20;5.78;;;;;;;;;;5057867;28;20024;-71
2022/04/03 08:36:18;;;;;;;9.82;6.68;;;;;;;;;;5071373;28;20106;-72
2022/04/03 08:39:04;;;;;;;11.02;5.90;;;;;;;;;;5065205;28;20115;-72
2022/04/03 08:41:49;;;;;;;9.35;5.53;;;;;;;;;;5076311;28;20025;-72
2022/04/03 08:44:34;;;;;;;10.15;6.10;;;;;;;;;;5077297;28;20024;-64
2022/04/03 08:47:20;;;;;;;10.38;5.78;;;;;;;;;;5061744;28;20035;-68
2022/04/03 08:50:06;;;;;;;9.57;5.85;;;;;;;;;;5076042;28;20060;-68
2022/04/03 08:52:52;;;;;;;8.65;5.63;;;;;;;;;;5080612;28;20537;-67
2022/04/03 08:55:37;;;;;;;10.90;5.82;;;;;;;;;;5077077;28;20074;-68
2022/04/03 08:58:23;;;;;;;9.88;5.63;;;;;;;;;;5074925;28;20099;-67
2022/04/03 09:01:08;;;;;;;9.25;6.05;;;;;;;;;;5069594;28;20084;-67
2022/04/03 09:03:53;;;;;;;10.32;6.03;;;;;;;;;;5080386;28;20036;-68
2022/04/03 09:06:52;;;;;;;10.60;6.10;;;;;;;;;;5076744;28;20024;-76
2022/04/03 09:09:38;;;;;;;8.20;5.18;;;;;;;;;;5052668;28;20020;-77
2022/04/03 09:12:23;;;;;;;10.57;5.78;;;;;;;;;;5065837;28;20055;-75
2022/04/03 09:15:14;;;;;;;7.68;4.75;;;;;;;;;;5056078;28;20063;-77
2022/04/03 09:18:00;;;;;;;9.27;5.78;;;;;;;;;;5075319;28;20032;-76
2022/04/03 09:20:45;;;;;;;7.80;4.90;;;;;;;;;;5056411;28;20032;-69
2022/04/03 09:23:31;;;;;;;7.97;4.68;;;;;;;;;;5071711;28;20125;-65
2022/04/03 09:26:16;;;;;;;10.80;5.55;;;;;;;;;;5067567;28;20025;-64
2022/04/03 09:29:14;;;;;;;9.75;4.88;;;;;;;;;;5056328;28;20017;-63
2022/04/03 09:32:01;;;;;;;9.60;5.63;;;;;;;;;;5068114;28;20478;-64
2022/04/03 09:34:47;;;;;;;9.48;6.22;;;;;;;;;;5076385;28;20036;-65
2022/04/03 09:37:32;;;;;;;10.55;5.28;;;;;;;;;;5066383;28;20028;-66
2022/04/03 09:40:28;;;;;;;11.05;5.90;;;;;;;;;;5085469;28;20551;-68
2022/04/03 09:43:18;;;;;;;7.90;5.30;;;;;;;;;;5075040;28;20040;-67
2022/04/03 09:46:04;;;;;;;7.65;4.97;;;;;;;;;;5056101;28;20426;-68
2022/04/03 09:48:49;;;;;;;9.18;5.20;;;;;;;;;;5059380;28;20031;-68
2022/04/03 09:51:35;;;;;;;15.10;5.75;;;;;;;;;;5075751;28;20031;-68
2022/04/03 09:54:21;;;;;;;7.13;4.43;;;;;;;;;;5075400;28;20035;-67
2022/04/03 09:57:17;;;;;;;10.63;5.03;;;;;;;;;;5058109;28;20414;-64
2022/04/03 10:00:03;;;;;;;6.57;4.38;;;;;;;;;;5058342;28;20035;-69
2022/04/03 10:02:56;;;;;;;8.20;3.88;;;;;;;;;;5060089;28;20035;-69
2022/04/03 10:05:42;;;;;;;5.53;3.65;;;;;;;;;;5075072;28;20386;-68
2022/04/03 10:08:27;;;;;;;7.53;3.92;;;;;;;;;;5060336;28;20038;-70
2022/04/03 10:11:13;;;;;;;8.75;4.55;;;;;;;;;;5075299;28;20348;-69
2022/04/03 10:13:59;;;;;;;9.27;4.72;;;;;;;;;;5081444;28;20032;-68
2022/04/03 10:16:44;;;;;;;6.68;4.20;;;;;;;;;;5067488;28;20056;-68
2022/04/03 10:19:29;;;;;;;8.30;4.40;;;;;;;;;;5071447;28;20032;-67
2022/04/03 10:22:22;;;;;;;9.88;5.20;;;;;;;;;;5075075;28;20039;-69
2022/04/03 10:25:11;;;;;;;8.68;4.53;;;;;;;;;;5074445;28;20016;-66
2022/04/03 10:27:58;;;;;;;8.57;4.80;;;;;;;;;;5074598;28;20032;-67
2022/04/03 10:30:43;;;;;;;8.10;4.75;;;;;;;;;;5072128;28;20023;-66
2022/04/03 10:33:35;;;;;;;10.93;6.13;;;;;;;;;;5055225;28;20364;-68
2022/04/03 10:36:29;;;;;;;10.80;5.30;;;;;;;;;;5074084;28;20044;-70
2022/04/03 10:39:20;;;;;;;7.30;4.28;;;;;;;;;;5074596;28;20032;-69
2022/04/03 10:42:16;;;;;;;8.07;4.60;;;;;;;;;;5074884;28;20539;-70
2022/04/03 10:45:10;;;;;;;9.10;5.60;;;;;;;;;;5074255;28;20020;-73
2022/04/03 10:48:14;;;;;;;7.57;4.65;;;;;;;;;;5071067;28;20025;-70
2022/04/03 10:51:03;;;;;;;24.67;8.68;;;;;;;;;;5070267;28;20279;-69
2022/04/03 10:53:48;;;;;;;17.00;6.70;;;;;;;;;;5074963;28;20055;-70
2022/04/03 10:56:34;;;;;;;21.17;8.05;;;;;;;;;;5088159;28;20020;-65
2022/04/03 10:59:19;;;;;;;11.45;5.28;;;;;;;;;;5062521;28;20021;-65
2022/04/03 11:02:12;;;;;;;12.63;5.47;;;;;;;;;;5089994;28;20035;-66
2022/04/03 11:05:19;;;;;;;8.63;4.90;;;;;;;;;;5074816;28;20034;-66
2022/04/03 11:08:04;;;;;;;8.35;5.07;;;;;;;;;;5060171;28;20024;-65
2022/04/03 11:11:06;;;;;;;18.48;7.03;;;;;;;;;;5069841;28;20586;-70
2022/04/03 11:13:51;;;;;;;6.15;4.22;;;;;;;;;;5067515;28;20043;-70
2022/04/03 11:16:53;;;;;;;10.50;4.88;;;;;;;;;;5066007;28;20123;-71
2022/04/03 11:19:43;;;;;;;11.27;4.65;;;;;;;;;;5074393;28;20506;-70
2022/04/03 11:22:29;;;;;;;8.57;4.68;;;;;;;;;;5074458;28;20093;-69
2022/04/03 11:25:14;;;;;;;7.00;4.47;;;;;;;;;;5070968;28;20017;-71
2022/04/03 11:28:01;;;;;;;6.00;3.95;;;;;;;;;;5056075;28;20020;-69
2022/04/03 11:30:46;;;;;;;5.97;3.75;;;;;;;;;;5062886;28;20535;-77
2022/04/03 11:33:32;;;;;;;6.07;3.30;;;;;;;;;;5093719;28;20118;-69
2022/04/03 11:36:19;;;;;;;5.55;3.35;;;;;;;;;;5089861;28;20480;-71
2022/04/03 11:39:08;;;;;;;7.05;3.85;;;;;;;;;;5072035;28;20024;-69
2022/04/03 11:41:53;;;;;;;4.25;2.97;;;;;;;;;;5076209;28;20525;-66
2022/04/03 11:44:41;;;;;;;7.68;3.38;;;;;;;;;;5058666;28;20127;-73
2022/04/03 11:47:28;;;;;;;5.10;3.22;;;;;;;;;;5070340;28;20046;-69
2022/04/03 11:50:15;;;;;;;8.75;4.10;;;;;;;;;;5073138;28;20106;-70
2022/04/03 11:53:08;;;;;;;9.45;5.65;;;;;;;;;;5075117;28;20477;-71
2022/04/03 11:55:54;;;;;;;7.72;3.67;;;;;;;;;;5061261;28;20116;-69
2022/04/03 11:58:40;;;;;;;6.90;3.30;;;;;;;;;;5071394;28;20107;-73
2022/04/03 12:01:26;;;;;;;8.70;3.50;;;;;;;;;;5063037;28;20078;-73
2022/04/03 12:04:13;;;;;;;6.85;3.25;;;;;;;;;;5057756;28;20364;-73
2022/04/03 12:06:58;;;;;;;5.00;3.20;;;;;;;;;;5057999;28;20099;-67
2022/04/03 12:09:44;;;;;;;4.90;3.10;;;;;;;;;;5076337;28;20043;-63
2022/04/03 12:12:29;;;;;;;5.90;3.22;;;;;;;;;;5061555;28;20055;-63
2022/04/03 12:15:15;;;;;;;7.70;3.47;;;;;;;;;;5057453;28;20452;-62
2022/04/03 12:18:02;;;;;;;7.53;4.30;;;;;;;;;;5052457;28;20021;-61
2022/04/03 12:20:49;;;;;;;7.07;3.85;;;;;;;;;;5059877;28;20731;-61
2022/04/03 12:23:34;;;;;;;6.72;3.47;;;;;;;;;;5059216;28;20040;-70
2022/04/03 12:26:20;;;;;;;5.07;3.38;;;;;;;;;;5071562;28;20099;-73
2022/04/03 12:29:07;;;;;;;7.38;3.83;;;;;;;;;;5072017;28;20268;-70
2022/04/03 12:32:04;;;;;;;6.30;3.70;;;;;;;;;;5072291;28;20058;-72
2022/04/03 12:34:50;;;;;;;4.97;3.33;;;;;;;;;;5054625;28;20028;-70
2022/04/03 12:37:36;;;;;;;9.57;4.47;;;;;;;;;;5072167;28;20031;-70
2022/04/03 12:40:23;;;;;;;7.75;4.30;;;;;;;;;;5076666;28;20024;-72
2022/04/03 12:43:08;;;;;;;8.10;4.07;;;;;;;;;;5065881;28;20035;-69
2022/04/03 12:45:56;;;;;;;7.82;3.92;;;;;;;;;;5069005;28;20032;-69
2022/04/03 12:48:49;;;;;;;7.30;4.10;;;;;;;;;;5068014;28;20414;-65
2022/04/03 12:51:42;;;;;;;28.73;14.95;;;;;;;;;;5070317;28;20081;-65
2022/04/03 12:54:43;;;;;;;11.05;4.40;;;;;;;;;;5060672;28;20156;-65
2022/04/03 13:00:32;;;;;;;8.07;4.93;;;;;;;;;;5070846;28;20099;-64
2022/04/03 13:03:34;;;;;;;7.93;3.67;;;;;;;;;;5068774;28;20066;-71
2022/04/03 13:06:29;;;;;;;7.43;4.78;;;;;;;;;;5068671;28;20024;-68
2022/04/03 13:09:17;;;;;;;6.72;4.00;;;;;;;;;;5068711;28;20032;-70
2022/04/03 13:12:03;;;;;;;8.10;4.35;;;;;;;;;;5069175;28;20044;-69
2022/04/03 13:14:49;;;;;;;8.55;4.43;;;;;;;;;;5071473;28;20074;-69
2022/04/03 13:17:34;;;;;;;8.13;4.40;;;;;;;;;;5067934;28;20536;-67
2022/04/03 13:20:20;;;;;;;6.05;3.88;;;;;;;;;;5073095;28;20020;-68
2022/04/03 13:23:06;;;;;;;7.05;4.30;;;;;;;;;;5073953;28;20070;-63
2022/04/03 13:25:52;;;;;;;10.95;4.60;;;;;;;;;;5073769;28;20110;-64
2022/04/03 13:28:37;;;;;;;8.02;4.78;;;;;;;;;;5074979;28;20067;-67
2022/04/03 13:31:23;;;;;;;6.75;4.18;;;;;;;;;;5073200;28;20028;-64
2022/04/03 13:34:08;;;;;;;5.97;4.07;;;;;;;;;;5069109;28;20023;-66
2022/04/03 13:36:54;;;;;;;5.40;3.67;;;;;;;;;;5070242;28;20123;-66
2022/04/03 13:39:39;;;;;;;7.85;4.70;;;;;;;;;;5069396;28;20540;-76
2022/04/03 13:42:24;;;;;;;7.72;4.30;;;;;;;;;;5069225;28;20055;-70
2022/04/03 13:45:10;;;;;;;9.90;4.60;;;;;;;;;;5073401;28;20095;-70
2022/04/03 13:47:55;;;;;;;15.43;7.57;;;;;;;;;;5075238;28;20023;-69
2022/04/03 13:50:40;;;;;;;8.65;4.53;;;;;;;;;;5067988;28;20028;-68
2022/04/03 13:53:26;;;;;;;7.25;4.07;;;;;;;;;;5071175;28;20024;-68
2022/04/03 13:56:12;;;;;;;8.07;4.20;;;;;;;;;;5071180;28;20027;-62
2022/04/03 13:58:58;;;;;;;7.60;4.60;;;;;;;;;;5060565;28;20026;-70
2022/04/03 14:01:43;;;;;;;6.80;4.28;;;;;;;;;;5058131;28;20027;-66
2022/04/03 14:04:28;;;;;;;9.40;4.50;;;;;;;;;;5058796;28;20040;-67
2022/04/03 14:07:15;;;;;;;7.57;4.63;;;;;;;;;;5065533;28;20059;-70
2022/04/03 14:10:00;;;;;;;10.52;4.72;;;;;;;;;;5059575;28;20423;-67
2022/04/03 14:12:45;;;;;;;8.43;4.35;;;;;;;;;;5047895;28;20052;-71
2022/04/03 14:15:31;;;;;;;8.45;4.90;;;;;;;;;;5065064;28;20124;-66
2022/04/03 14:18:17;;;;;;;6.88;3.88;;;;;;;;;;5060369;28;20028;-70
2022/04/03 14:21:02;;;;;;;7.10;4.13;;;;;;;;;;5051136;28;20059;-66
2022/04/03 14:23:47;;;;;;;7.45;4.38;;;;;;;;;;5066772;28;20091;-66
2022/04/03 14:26:33;;;;;;;8.48;4.22;;;;;;;;;;5062792;28;20051;-65
2022/04/03 14:29:18;;;;;;;5.93;4.03;;;;;;;;;;5062004;28;20028;-67
2022/04/03 14:32:04;;;;;;;6.55;4.03;;;;;;;;;;5063679;28;20017;-66
2022/04/03 14:34:50;;;;;;;7.28;4.30;;;;;;;;;;5050181;28;20035;-74
2022/04/03 14:37:35;;;;;;;10.15;4.07;;;;;;;;;;5062360;28;20025;-77
2022/04/03 14:40:20;;;;;;;6.10;3.75;;;;;;;;;;5048000;28;20037;-77
2022/04/03 14:43:06;;;;;;;7.22;4.10;;;;;;;;;;5065251;28;20044;-78
2022/04/03 14:45:51;;;;;;;6.15;3.60;;;;;;;;;;5065944;28;20029;-77
2022/04/03 14:48:38;;;;;;;9.77;3.75;;;;;;;;;;5059773;28;20503;-77
2022/04/03 14:51:24;;;;;;;6.65;3.95;;;;;;;;;;5060813;28;20094;-67
2022/04/03 14:54:09;;;;;;;8.88;4.68;;;;;;;;;;5063653;28;20324;-81
2022/04/03 14:56:55;;;;;;;6.93;3.97;;;;;;;;;;5049475;28;20055;-81
2022/04/03 14:59:40;;;;;;;10.13;4.25;;;;;;;;;;5074136;28;20024;-79
2022/04/03 15:02:26;;;;;;;5.95;3.53;;;;;;;;;;5059338;28;20055;-81
2022/04/03 15:05:11;;;;;;;5.75;3.78;;;;;;;;;;5062727;28;20029;-78
2022/04/03 15:07:56;;;;;;;7.75;4.30;;;;;;;;;;5059563;28;20078;-81
2022/04/03 15:10:42;;;;;;;7.47;3.70;;;;;;;;;;5067756;28;20033;-72
2022/04/03 15:13:27;;;;;;;7.60;4.13;;;;;;;;;;5033533;28;20488;-69
2022/04/03 15:16:13;;;;;;;7.53;4.07;;;;;;;;;;5038952;28;20423;-68
2022/04/03 15:18:58;;;;;;;8.88;4.97;;;;;;;;;;5047597;28;20021;-67
2022/04/03 15:21:43;;;;;;;9.30;4.28;;;;;;;;;;5041918;28;20046;-68
2022/04/03 15:24:28;;;;;;;7.97;4.57;;;;;;;;;;5029541;28;20040;-68
2022/04/03 15:27:14;;;;;;;9.43;5.15;;;;;;;;;;5046520;28;20354;-68
2022/04/03 15:29:59;;;;;;;7.75;4.93;;;;;;;;;;5046496;28;20021;-70
2022/04/03 15:32:45;;;;;;;10.25;4.80;;;;;;;;;;5046620;28;20464;-61
2022/04/03 15:35:30;;;;;;;9.63;5.05;;;;;;;;;;5035036;28;20033;-62
2022/04/03 15:38:15;;;;;;;7.50;4.57;;;;;;;;;;5046612;28;20075;-65
2022/04/03 15:41:01;;;;;;;8.05;4.32;;;;;;;;;;5046240;28;20025;-62
2022/04/03 15:43:46;;;;;;;8.38;4.95;;;;;;;;;;5041989;28;20033;-63
2022/04/03 15:46:31;;;;;;;11.85;4.78;;;;;;;;;;5040455;28;20040;-71
2022/04/03 15:49:17;;;;;;;7.55;4.78;;;;;;;;;;5034179;28;20067;-69
2022/04/03 15:52:03;;;;;;;8.10;5.32;;;;;;;;;;5039463;28;20029;-74
2022/04/03 15:54:49;;;;;;;6.38;4.05;;;;;;;;;;5021138;28;20492;-73
2022/04/03 15:57:39;;;;;;;10.38;4.13;;;;;;;;;;5041286;28;20017;-71
2022/04/03 16:00:25;;;;;;;6.85;4.78;;;;;;;;;;5042941;28;20480;-70
2022/04/03 16:03:10;;;;;;;7.90;4.13;;;;;;;;;;5043180;28;20083;-74
2022/04/03 16:05:56;;;;;;;9.38;4.90;;;;;;;;;;5039935;28;20458;-60
2022/04/03 16:08:42;;;;;;;7.22;4.68;;;;;;;;;;5041567;28;20647;-72
2022/04/03 16:11:28;;;;;;;11.10;4.35;;;;;;;;;;5051344;28;20032;-72
2022/04/03 16:14:13;;;;;;;7.22;5.15;;;;;;;;;;5065735;28;20495;-68
2022/04/03 16:16:58;;;;;;;8.00;4.35;;;;;;;;;;5066969;28;20039;-70
2022/04/03 16:19:44;;;;;;;9.45;5.43;;;;;;;;;;5072303;28;20039;-69
2022/04/03 16:22:29;;;;;;;7.38;4.60;;;;;;;;;;5074089;28;20036;-69
2022/04/03 16:25:14;;;;;;;12.07;5.50;;;;;;;;;;5076915;28;20059;-67
2022/04/03 16:28:00;;;;;;;8.18;5.00;;;;;;;;;;5055170;28;20031;-78